sensor_id;sensor_type;location;lat;lon;timestamp;temperature;humidity
51733;DHT22;39139;53.144;6.244;2023-03-20T00:01:21;6.80;99.90
51733;DHT22;39139;53.144;6.244;2023-03-20T00:03:51;6.80;99.90
51733;DHT22;39139;53.144;6.244;2023-03-20T00:06:22;6.80;99.90
51733;DHT22;39139;53.144;6.244;2023-03-20T00:08:50;6.80;99.90
51733;DHT22;39139;53.144;6.244;2023-03-20T00:11:27;6.80;99.90
51733;DHT22;39139;53.144;6.244;2023-03-20T00:14:02;6.80;99.90
51733;DHT22;39139;53.144;6.244;2023-03-20T00:16:35;6.80;99.90
51733;DHT22;39139;53.144;6.244;2023-03-20T00:19:01;6.80;99.90
51733;DHT22;39139;53.144;6.244;2023-03-20T00:21:27;6.80;99.90
51733;DHT22;39139;53.144;6.244;2023-03-20T00:23:54;6.80;99.90
51733;DHT22;39139;53.144;6.244;2023-03-20T00:26:32;6.80;99.90
51733;DHT22;39139;53.144;6.244;2023-03-20T00:29:00;6.80;99.90
51733;DHT22;39139;53.144;6.244;2023-03-20T00:31:34;6.80;99.90
51733;DHT22;39139;53.144;6.244;2023-03-20T00:34:02;6.80;99.90
51733;DHT22;39139;53.144;6.244;2023-03-20T00:36:29;6.80;99.90
51733;DHT22;39139;53.144;6.244;2023-03-20T00:38:55;6.90;99.90
51733;DHT22;39139;53.144;6.244;2023-03-20T00:41:30;6.80;99.90
51733;DHT22;39139;53.144;6.244;2023-03-20T00:44:02;6.80;99.90
51733;DHT22;39139;53.144;6.244;2023-03-20T00:46:35;6.80;99.90
51733;DHT22;39139;53.144;6.244;2023-03-20T00:49:01;6.80;99.90
51733;DHT22;39139;53.144;6.244;2023-03-20T00:51:27;6.90;99.90
51733;DHT22;39139;53.144;6.244;2023-03-20T00:53:53;6.80;99.90
51733;DHT22;39139;53.144;6.244;2023-03-20T00:56:31;6.90;99.90
51733;DHT22;39139;53.144;6.244;2023-03-20T00:58:58;6.90;99.90
51733;DHT22;39139;53.144;6.244;2023-03-20T01:01:24;6.90;99.90
51733;DHT22;39139;53.144;6.244;2023-03-20T01:03:50;6.90;99.90
51733;DHT22;39139;53.144;6.244;2023-03-20T01:06:15;6.90;99.90
51733;DHT22;39139;53.144;6.244;2023-03-20T01:08:43;7.00;99.90
51733;DHT22;39139;53.144;6.244;2023-03-20T01:11:11;6.90;99.90
51733;DHT22;39139;53.144;6.244;2023-03-20T01:13:37;7.00;99.90
51733;DHT22;39139;53.144;6.244;2023-03-20T01:16:05;7.00;99.90
51733;DHT22;39139;53.144;6.244;2023-03-20T01:18:31;7.00;99.90
51733;DHT22;39139;53.144;6.244;2023-03-20T01:20:57;7.00;99.90
51733;DHT22;39139;53.144;6.244;2023-03-20T01:23:22;7.00;99.90
51733;DHT22;39139;53.144;6.244;2023-03-20T01:25:49;7.10;99.90
51733;DHT22;39139;53.144;6.244;2023-03-20T01:28:21;6.90;99.90
51733;DHT22;39139;53.144;6.244;2023-03-20T01:30:47;7.00;99.90
51733;DHT22;39139;53.144;6.244;2023-03-20T01:33:23;7.00;99.90
51733;DHT22;39139;53.144;6.244;2023-03-20T01:35:51;7.00;99.90
51733;DHT22;39139;53.144;6.244;2023-03-20T01:38:23;7.10;99.90
51733;DHT22;39139;53.144;6.244;2023-03-20T01:41:10;7.00;99.90
51733;DHT22;39139;53.144;6.244;2023-03-20T01:43:36;7.10;99.90
51733;DHT22;39139;53.144;6.244;2023-03-20T01:46:13;7.30;99.90
51733;DHT22;39139;53.144;6.244;2023-03-20T01:51:27;7.00;99.90
51733;DHT22;39139;53.144;6.244;2023-03-20T01:54:02;7.10;99.90
51733;DHT22;39139;53.144;6.244;2023-03-20T01:56:30;7.10;99.90
51733;DHT22;39139;53.144;6.244;2023-03-20T01:59:05;7.10;99.90
51733;DHT22;39139;53.144;6.244;2023-03-20T02:01:33;7.10;99.90
51733;DHT22;39139;53.144;6.244;2023-03-20T02:04:01;7.10;99.90
51733;DHT22;39139;53.144;6.244;2023-03-20T02:06:27;7.10;99.90
51733;DHT22;39139;53.144;6.244;2023-03-20T02:08:53;7.10;99.90
51733;DHT22;39139;53.144;6.244;2023-03-20T02:11:21;7.10;99.90
51733;DHT22;39139;53.144;6.244;2023-03-20T02:13:53;7.20;99.90
51733;DHT22;39139;53.144;6.244;2023-03-20T02:16:19;7.10;99.90
51733;DHT22;39139;53.144;6.244;2023-03-20T02:18:48;7.20;99.90
51733;DHT22;39139;53.144;6.244;2023-03-20T02:24:44;7.10;99.90
51733;DHT22;39139;53.144;6.244;2023-03-20T02:35:36;7.20;99.90
51733;DHT22;39139;53.144;6.244;2023-03-20T02:38:20;7.20;99.90
51733;DHT22;39139;53.144;6.244;2023-03-20T02:44:05;7.50;99.90
51733;DHT22;39139;53.144;6.244;2023-03-20T02:52:58;7.20;99.90
51733;DHT22;39139;53.144;6.244;2023-03-20T02:58:13;7.20;99.90
51733;DHT22;39139;53.144;6.244;2023-03-20T03:00:53;7.20;99.90
51733;DHT22;39139;53.144;6.244;2023-03-20T03:03:28;7.20;99.90
51733;DHT22;39139;53.144;6.244;2023-03-20T03:06:06;7.20;99.90
51733;DHT22;39139;53.144;6.244;2023-03-20T03:08:40;7.20;99.90
51733;DHT22;39139;53.144;6.244;2023-03-20T03:11:08;7.30;99.90
51733;DHT22;39139;53.144;6.244;2023-03-20T03:13:45;7.30;99.90
51733;DHT22;39139;53.144;6.244;2023-03-20T03:16:16;7.20;99.90
51733;DHT22;39139;53.144;6.244;2023-03-20T03:18:44;7.40;99.90
51733;DHT22;39139;53.144;6.244;2023-03-20T03:21:12;7.30;99.90
51733;DHT22;39139;53.144;6.244;2023-03-20T03:23:43;7.30;99.90
51733;DHT22;39139;53.144;6.244;2023-03-20T03:26:23;7.30;99.90
51733;DHT22;39139;53.144;6.244;2023-03-20T03:28:54;7.30;99.90
51733;DHT22;39139;53.144;6.244;2023-03-20T03:31:22;7.30;99.90
51733;DHT22;39139;53.144;6.244;2023-03-20T03:33:54;7.50;99.90
51733;DHT22;39139;53.144;6.244;2023-03-20T03:39:19;7.30;99.90
51733;DHT22;39139;53.144;6.244;2023-03-20T03:41:51;7.30;99.90
51733;DHT22;39139;53.144;6.244;2023-03-20T03:44:24;7.60;99.90
51733;DHT22;39139;53.144;6.244;2023-03-20T03:47:05;7.30;99.90
51733;DHT22;39139;53.144;6.244;2023-03-20T03:49:38;7.30;99.90
51733;DHT22;39139;53.144;6.244;2023-03-20T03:52:10;7.30;99.90
51733;DHT22;39139;53.144;6.244;2023-03-20T03:55:00;7.40;99.90
51733;DHT22;39139;53.144;6.244;2023-03-20T03:57:31;7.30;99.90
51733;DHT22;39139;53.144;6.244;2023-03-20T04:00:00;7.60;99.90
51733;DHT22;39139;53.144;6.244;2023-03-20T04:02:27;7.30;99.90
51733;DHT22;39139;53.144;6.244;2023-03-20T04:04:53;7.30;99.90
51733;DHT22;39139;53.144;6.244;2023-03-20T04:07:19;7.30;99.90
51733;DHT22;39139;53.144;6.244;2023-03-20T04:09:46;7.30;99.90
51733;DHT22;39139;53.144;6.244;2023-03-20T04:14:58;7.30;99.90
51733;DHT22;39139;53.144;6.244;2023-03-20T04:17:23;7.30;99.90
51733;DHT22;39139;53.144;6.244;2023-03-20T04:19:49;7.30;99.90
51733;DHT22;39139;53.144;6.244;2023-03-20T04:22:15;7.30;99.90
51733;DHT22;39139;53.144;6.244;2023-03-20T04:24:41;7.30;99.90
51733;DHT22;39139;53.144;6.244;2023-03-20T04:27:06;7.30;99.90
51733;DHT22;39139;53.144;6.244;2023-03-20T04:29:32;7.30;99.90
51733;DHT22;39139;53.144;6.244;2023-03-20T04:31:57;7.30;99.90
51733;DHT22;39139;53.144;6.244;2023-03-20T04:34:24;7.30;99.90
51733;DHT22;39139;53.144;6.244;2023-03-20T04:36:50;7.30;99.90
51733;DHT22;39139;53.144;6.244;2023-03-20T04:39:15;7.30;99.90
51733;DHT22;39139;53.144;6.244;2023-03-20T04:41:41;7.30;99.90
51733;DHT22;39139;53.144;6.244;2023-03-20T04:44:07;7.40;99.90
51733;DHT22;39139;53.144;6.244;2023-03-20T04:46:32;7.30;99.90
51733;DHT22;39139;53.144;6.244;2023-03-20T04:48:58;7.30;99.90
51733;DHT22;39139;53.144;6.244;2023-03-20T04:51:24;7.30;99.90
51733;DHT22;39139;53.144;6.244;2023-03-20T04:53:49;7.30;99.90
51733;DHT22;39139;53.144;6.244;2023-03-20T04:56:15;7.30;99.90
51733;DHT22;39139;53.144;6.244;2023-03-20T04:58:41;7.30;99.90
51733;DHT22;39139;53.144;6.244;2023-03-20T05:01:06;7.30;99.90
51733;DHT22;39139;53.144;6.244;2023-03-20T05:03:32;7.50;99.90
51733;DHT22;39139;53.144;6.244;2023-03-20T05:05:58;7.30;99.90
51733;DHT22;39139;53.144;6.244;2023-03-20T05:08:24;7.40;99.90
51733;DHT22;39139;53.144;6.244;2023-03-20T05:10:50;7.30;99.90
51733;DHT22;39139;53.144;6.244;2023-03-20T05:13:16;7.30;99.90
51733;DHT22;39139;53.144;6.244;2023-03-20T05:15:42;7.30;99.90
51733;DHT22;39139;53.144;6.244;2023-03-20T05:18:08;7.30;99.90
51733;DHT22;39139;53.144;6.244;2023-03-20T05:20:34;7.60;99.90
51733;DHT22;39139;53.144;6.244;2023-03-20T05:23:01;7.30;99.90
51733;DHT22;39139;53.144;6.244;2023-03-20T05:25:27;7.30;99.90
51733;DHT22;39139;53.144;6.244;2023-03-20T05:27:52;7.30;99.90
51733;DHT22;39139;53.144;6.244;2023-03-20T05:30:18;7.40;99.90
51733;DHT22;39139;53.144;6.244;2023-03-20T05:32:44;7.30;99.90
51733;DHT22;39139;53.144;6.244;2023-03-20T05:35:10;7.30;99.90
51733;DHT22;39139;53.144;6.244;2023-03-20T05:37:37;7.60;99.90
51733;DHT22;39139;53.144;6.244;2023-03-20T05:40:04;7.20;99.90
51733;DHT22;39139;53.144;6.244;2023-03-20T05:42:30;7.30;99.90
51733;DHT22;39139;53.144;6.244;2023-03-20T05:44:56;7.20;99.90
51733;DHT22;39139;53.144;6.244;2023-03-20T05:47:21;7.20;99.90
51733;DHT22;39139;53.144;6.244;2023-03-20T05:49:47;7.20;99.90
51733;DHT22;39139;53.144;6.244;2023-03-20T05:52:12;7.20;99.90
51733;DHT22;39139;53.144;6.244;2023-03-20T05:54:38;7.40;99.90
51733;DHT22;39139;53.144;6.244;2023-03-20T05:57:04;7.20;99.90
51733;DHT22;39139;53.144;6.244;2023-03-20T05:59:29;7.20;99.90
51733;DHT22;39139;53.144;6.244;2023-03-20T06:01:55;7.20;99.90
51733;DHT22;39139;53.144;6.244;2023-03-20T06:04:20;7.40;99.90
51733;DHT22;39139;53.144;6.244;2023-03-20T06:06:46;7.20;99.90
51733;DHT22;39139;53.144;6.244;2023-03-20T06:09:11;7.20;99.90
51733;DHT22;39139;53.144;6.244;2023-03-20T06:11:37;7.30;99.90
51733;DHT22;39139;53.144;6.244;2023-03-20T06:14:03;7.20;99.90
51733;DHT22;39139;53.144;6.244;2023-03-20T06:16:28;7.20;99.90
51733;DHT22;39139;53.144;6.244;2023-03-20T06:18:54;7.20;99.90
51733;DHT22;39139;53.144;6.244;2023-03-20T06:21:20;7.30;99.90
51733;DHT22;39139;53.144;6.244;2023-03-20T06:23:45;7.20;99.90
51733;DHT22;39139;53.144;6.244;2023-03-20T06:26:11;7.30;99.90
51733;DHT22;39139;53.144;6.244;2023-03-20T06:28:36;7.30;99.90
51733;DHT22;39139;53.144;6.244;2023-03-20T06:31:02;7.30;99.90
51733;DHT22;39139;53.144;6.244;2023-03-20T06:33:28;7.30;99.90
51733;DHT22;39139;53.144;6.244;2023-03-20T06:35:53;7.30;99.90
51733;DHT22;39139;53.144;6.244;2023-03-20T06:38:19;7.40;99.90
51733;DHT22;39139;53.144;6.244;2023-03-20T06:40:45;7.40;99.90
51733;DHT22;39139;53.144;6.244;2023-03-20T06:43:11;7.40;99.90
51733;DHT22;39139;53.144;6.244;2023-03-20T06:45:37;7.40;99.90
51733;DHT22;39139;53.144;6.244;2023-03-20T06:48:09;7.40;99.90
51733;DHT22;39139;53.144;6.244;2023-03-20T06:50:35;7.50;99.90
51733;DHT22;39139;53.144;6.244;2023-03-20T06:53:02;7.50;99.90
51733;DHT22;39139;53.144;6.244;2023-03-20T06:55:28;7.60;99.90
51733;DHT22;39139;53.144;6.244;2023-03-20T06:57:53;7.50;99.90
51733;DHT22;39139;53.144;6.244;2023-03-20T07:00:19;7.50;99.90
51733;DHT22;39139;53.144;6.244;2023-03-20T07:02:46;7.50;99.90
51733;DHT22;39139;53.144;6.244;2023-03-20T07:05:13;7.60;99.90
51733;DHT22;39139;53.144;6.244;2023-03-20T07:07:39;7.60;99.90
51733;DHT22;39139;53.144;6.244;2023-03-20T07:10:05;7.60;99.90
51733;DHT22;39139;53.144;6.244;2023-03-20T07:12:30;7.70;99.90
51733;DHT22;39139;53.144;6.244;2023-03-20T07:14:56;7.70;99.90
51733;DHT22;39139;53.144;6.244;2023-03-20T07:17:22;7.80;99.90
51733;DHT22;39139;53.144;6.244;2023-03-20T07:19:48;8.00;99.90
51733;DHT22;39139;53.144;6.244;2023-03-20T07:22:22;7.90;99.90
51733;DHT22;39139;53.144;6.244;2023-03-20T07:24:49;8.00;99.90
51733;DHT22;39139;53.144;6.244;2023-03-20T07:27:15;8.00;99.90
51733;DHT22;39139;53.144;6.244;2023-03-20T07:29:40;8.40;99.90
51733;DHT22;39139;53.144;6.244;2023-03-20T07:32:06;8.20;99.90
51733;DHT22;39139;53.144;6.244;2023-03-20T07:34:32;8.20;99.90
51733;DHT22;39139;53.144;6.244;2023-03-20T07:36:57;8.30;99.90
51733;DHT22;39139;53.144;6.244;2023-03-20T07:39:23;8.30;99.90
51733;DHT22;39139;53.144;6.244;2023-03-20T07:41:49;8.30;99.90
51733;DHT22;39139;53.144;6.244;2023-03-20T07:44:14;8.40;99.90
51733;DHT22;39139;53.144;6.244;2023-03-20T07:46:42;8.40;99.90
51733;DHT22;39139;53.144;6.244;2023-03-20T07:49:08;8.40;99.90
51733;DHT22;39139;53.144;6.244;2023-03-20T07:51:35;8.40;99.90
51733;DHT22;39139;53.144;6.244;2023-03-20T07:54:01;8.40;99.90
51733;DHT22;39139;53.144;6.244;2023-03-20T07:56:27;8.40;99.90
51733;DHT22;39139;53.144;6.244;2023-03-20T07:58:52;8.50;99.90
51733;DHT22;39139;53.144;6.244;2023-03-20T08:01:18;8.40;99.90
51733;DHT22;39139;53.144;6.244;2023-03-20T08:03:43;8.40;99.90
51733;DHT22;39139;53.144;6.244;2023-03-20T08:06:09;8.40;99.90
51733;DHT22;39139;53.144;6.244;2023-03-20T08:08:35;8.40;99.90
51733;DHT22;39139;53.144;6.244;2023-03-20T08:11:01;8.60;99.90
51733;DHT22;39139;53.144;6.244;2023-03-20T08:13:27;8.60;99.90
51733;DHT22;39139;53.144;6.244;2023-03-20T08:15:52;8.70;99.90
51733;DHT22;39139;53.144;6.244;2023-03-20T08:18:18;8.80;99.90
51733;DHT22;39139;53.144;6.244;2023-03-20T08:20:47;8.70;99.90
51733;DHT22;39139;53.144;6.244;2023-03-20T08:23:15;8.80;99.90
51733;DHT22;39139;53.144;6.244;2023-03-20T08:25:41;8.80;99.90
51733;DHT22;39139;53.144;6.244;2023-03-20T08:28:11;8.80;99.90
51733;DHT22;39139;53.144;6.244;2023-03-20T08:30:37;8.80;99.90
51733;DHT22;39139;53.144;6.244;2023-03-20T08:33:02;8.80;99.90
51733;DHT22;39139;53.144;6.244;2023-03-20T08:35:28;8.90;99.90
51733;DHT22;39139;53.144;6.244;2023-03-20T08:37:54;8.80;99.90
51733;DHT22;39139;53.144;6.244;2023-03-20T08:40:19;8.80;99.90
51733;DHT22;39139;53.144;6.244;2023-03-20T08:42:45;8.80;99.90
51733;DHT22;39139;53.144;6.244;2023-03-20T08:45:12;8.90;99.90
51733;DHT22;39139;53.144;6.244;2023-03-20T08:47:38;8.90;99.90
51733;DHT22;39139;53.144;6.244;2023-03-20T08:50:04;9.00;99.90
51733;DHT22;39139;53.144;6.244;2023-03-20T08:52:30;9.00;99.90
51733;DHT22;39139;53.144;6.244;2023-03-20T08:54:55;9.10;99.90
51733;DHT22;39139;53.144;6.244;2023-03-20T08:57:22;9.20;99.90
51733;DHT22;39139;53.144;6.244;2023-03-20T08:59:47;9.20;99.90
51733;DHT22;39139;53.144;6.244;2023-03-20T09:02:13;9.30;99.90
51733;DHT22;39139;53.144;6.244;2023-03-20T09:04:39;9.40;99.90
51733;DHT22;39139;53.144;6.244;2023-03-20T09:07:05;9.40;99.90
51733;DHT22;39139;53.144;6.244;2023-03-20T09:09:31;9.40;99.90
51733;DHT22;39139;53.144;6.244;2023-03-20T09:11:58;9.40;99.90
51733;DHT22;39139;53.144;6.244;2023-03-20T09:14:25;9.40;99.90
51733;DHT22;39139;53.144;6.244;2023-03-20T09:16:51;9.50;99.90
51733;DHT22;39139;53.144;6.244;2023-03-20T09:19:18;9.60;99.90
51733;DHT22;39139;53.144;6.244;2023-03-20T09:21:44;9.70;99.90
51733;DHT22;39139;53.144;6.244;2023-03-20T09:24:10;9.70;99.90
51733;DHT22;39139;53.144;6.244;2023-03-20T09:26:37;10.00;99.90
51733;DHT22;39139;53.144;6.244;2023-03-20T09:29:03;9.70;99.90
51733;DHT22;39139;53.144;6.244;2023-03-20T09:31:30;9.80;99.90
51733;DHT22;39139;53.144;6.244;2023-03-20T09:33:55;9.90;99.90
51733;DHT22;39139;53.144;6.244;2023-03-20T09:36:21;9.90;99.90
51733;DHT22;39139;53.144;6.244;2023-03-20T09:38:46;10.10;99.90
51733;DHT22;39139;53.144;6.244;2023-03-20T09:41:30;10.30;99.90
51733;DHT22;39139;53.144;6.244;2023-03-20T09:52:25;10.10;99.90
51733;DHT22;39139;53.144;6.244;2023-03-20T09:54:58;10.00;99.90
51733;DHT22;39139;53.144;6.244;2023-03-20T09:57:34;10.10;99.90
51733;DHT22;39139;53.144;6.244;2023-03-20T10:00:11;10.10;99.90
51733;DHT22;39139;53.144;6.244;2023-03-20T10:02:51;10.00;99.90
51733;DHT22;39139;53.144;6.244;2023-03-20T10:05:24;10.10;99.90
51733;DHT22;39139;53.144;6.244;2023-03-20T10:07:52;9.90;99.90
51733;DHT22;39139;53.144;6.244;2023-03-20T10:10:19;10.00;99.90
51733;DHT22;39139;53.144;6.244;2023-03-20T10:15:49;9.90;99.90
51733;DHT22;39139;53.144;6.244;2023-03-20T10:18:25;10.00;99.90
51733;DHT22;39139;53.144;6.244;2023-03-20T10:26:10;10.70;99.90
51733;DHT22;39139;53.144;6.244;2023-03-20T10:28:59;10.90;99.90
51733;DHT22;39139;53.144;6.244;2023-03-20T10:31:40;11.00;99.90
51733;DHT22;39139;53.144;6.244;2023-03-20T10:40:36;10.80;99.90
51733;DHT22;39139;53.144;6.244;2023-03-20T10:43:21;10.70;99.90
51733;DHT22;39139;53.144;6.244;2023-03-20T10:45:56;10.60;99.90
51733;DHT22;39139;53.144;6.244;2023-03-20T10:48:40;10.30;99.90
51733;DHT22;39139;53.144;6.244;2023-03-20T10:51:19;10.30;99.90
51733;DHT22;39139;53.144;6.244;2023-03-20T10:53:54;10.20;99.90
51733;DHT22;39139;53.144;6.244;2023-03-20T10:56:30;10.20;99.90
51733;DHT22;39139;53.144;6.244;2023-03-20T10:59:02;10.10;99.90
51733;DHT22;39139;53.144;6.244;2023-03-20T11:01:28;10.10;99.90
51733;DHT22;39139;53.144;6.244;2023-03-20T11:03:54;9.90;99.90
51733;DHT22;39139;53.144;6.244;2023-03-20T11:06:27;9.80;99.90
51733;DHT22;39139;53.144;6.244;2023-03-20T11:08:55;9.80;99.90
51733;DHT22;39139;53.144;6.244;2023-03-20T11:11:27;9.80;99.90
51733;DHT22;39139;53.144;6.244;2023-03-20T11:14:09;9.80;99.90
51733;DHT22;39139;53.144;6.244;2023-03-20T11:16:40;9.90;99.90
51733;DHT22;39139;53.144;6.244;2023-03-20T11:19:07;9.80;99.90
51733;DHT22;39139;53.144;6.244;2023-03-20T11:21:44;9.90;99.90
51733;DHT22;39139;53.144;6.244;2023-03-20T11:24:40;9.80;99.90
51733;DHT22;39139;53.144;6.244;2023-03-20T11:27:18;9.90;99.90
51733;DHT22;39139;53.144;6.244;2023-03-20T11:29:47;9.90;99.90
51733;DHT22;39139;53.144;6.244;2023-03-20T11:32:26;9.90;99.90
51733;DHT22;39139;53.144;6.244;2023-03-20T11:34:57;10.00;99.90
51733;DHT22;39139;53.144;6.244;2023-03-20T11:37:34;9.90;99.90
51733;DHT22;39139;53.144;6.244;2023-03-20T11:40:20;9.90;99.90
51733;DHT22;39139;53.144;6.244;2023-03-20T11:42:53;10.00;99.90
51733;DHT22;39139;53.144;6.244;2023-03-20T11:45:19;10.10;99.90
51733;DHT22;39139;53.144;6.244;2023-03-20T11:47:50;10.10;99.90
51733;DHT22;39139;53.144;6.244;2023-03-20T11:50:43;10.00;99.90
51733;DHT22;39139;53.144;6.244;2023-03-20T11:53:31;10.10;99.90
51733;DHT22;39139;53.144;6.244;2023-03-20T11:58:30;9.90;99.90
51733;DHT22;39139;53.144;6.244;2023-03-20T12:00:56;9.80;99.90
51733;DHT22;39139;53.144;6.244;2023-03-20T12:06:12;9.60;99.90
51733;DHT22;39139;53.144;6.244;2023-03-20T12:08:39;9.50;99.90
51733;DHT22;39139;53.144;6.244;2023-03-20T12:11:23;9.40;99.90
51733;DHT22;39139;53.144;6.244;2023-03-20T12:13:59;9.50;99.90
51733;DHT22;39139;53.144;6.244;2023-03-20T12:16:25;9.50;99.90
51733;DHT22;39139;53.144;6.244;2023-03-20T12:18:54;9.40;99.90
51733;DHT22;39139;53.144;6.244;2023-03-20T12:21:43;9.20;99.90
51733;DHT22;39139;53.144;6.244;2023-03-20T12:24:30;9.20;99.90
51733;DHT22;39139;53.144;6.244;2023-03-20T12:27:27;9.10;99.90
51733;DHT22;39139;53.144;6.244;2023-03-20T12:30:15;9.10;99.90
51733;DHT22;39139;53.144;6.244;2023-03-20T12:32:55;9.10;99.90
51733;DHT22;39139;53.144;6.244;2023-03-20T12:35:34;9.10;99.90
51733;DHT22;39139;53.144;6.244;2023-03-20T12:38:01;9.10;99.90
51733;DHT22;39139;53.144;6.244;2023-03-20T12:40:41;9.00;99.90
51733;DHT22;39139;53.144;6.244;2023-03-20T12:43:19;9.00;99.90
51733;DHT22;39139;53.144;6.244;2023-03-20T12:57:26;9.00;99.90
51733;DHT22;39139;53.144;6.244;2023-03-20T13:10:28;8.90;99.90
51733;DHT22;39139;53.144;6.244;2023-03-20T13:18:39;8.80;99.90
51733;DHT22;39139;53.144;6.244;2023-03-20T13:21:09;8.80;99.90
51733;DHT22;39139;53.144;6.244;2023-03-20T13:26:43;8.80;99.90
51733;DHT22;39139;53.144;6.244;2023-03-20T13:29:51;8.80;99.90
51733;DHT22;39139;53.144;6.244;2023-03-20T13:35:02;8.80;99.90
51733;DHT22;39139;53.144;6.244;2023-03-20T13:40:34;8.80;99.90
51733;DHT22;39139;53.144;6.244;2023-03-20T13:43:26;8.80;99.90
51733;DHT22;39139;53.144;6.244;2023-03-20T13:46:14;8.80;99.90
51733;DHT22;39139;53.144;6.244;2023-03-20T13:48:42;8.80;99.90
51733;DHT22;39139;53.144;6.244;2023-03-20T13:54:09;8.80;99.90
51733;DHT22;39139;53.144;6.244;2023-03-20T13:56:51;8.80;99.90
51733;DHT22;39139;53.144;6.244;2023-03-20T13:59:45;8.80;99.90
51733;DHT22;39139;53.144;6.244;2023-03-20T14:02:34;8.90;99.90
51733;DHT22;39139;53.144;6.244;2023-03-20T14:05:15;8.80;99.90
51733;DHT22;39139;53.144;6.244;2023-03-20T14:07:43;8.70;99.90
51733;DHT22;39139;53.144;6.244;2023-03-20T14:13:01;8.80;99.90
51733;DHT22;39139;53.144;6.244;2023-03-20T14:15:36;8.80;99.90
51733;DHT22;39139;53.144;6.244;2023-03-20T14:18:12;8.80;99.90
51733;DHT22;39139;53.144;6.244;2023-03-20T14:20:40;8.80;99.90
51733;DHT22;39139;53.144;6.244;2023-03-20T14:23:16;8.90;99.90
51733;DHT22;39139;53.144;6.244;2023-03-20T14:25:43;8.80;99.90
51733;DHT22;39139;53.144;6.244;2023-03-20T14:35:37;8.90;99.90
51733;DHT22;39139;53.144;6.244;2023-03-20T14:41:04;8.90;99.90
51733;DHT22;39139;53.144;6.244;2023-03-20T14:48:52;9.00;99.90
51733;DHT22;39139;53.144;6.244;2023-03-20T14:54:38;8.90;99.90
51733;DHT22;39139;53.144;6.244;2023-03-20T14:57:09;8.90;99.90
51733;DHT22;39139;53.144;6.244;2023-03-20T14:59:41;8.90;99.90
51733;DHT22;39139;53.144;6.244;2023-03-20T15:02:24;8.90;99.90
51733;DHT22;39139;53.144;6.244;2023-03-20T15:04:51;8.90;99.90
51733;DHT22;39139;53.144;6.244;2023-03-20T15:07:23;8.90;99.90
51733;DHT22;39139;53.144;6.244;2023-03-20T15:09:54;8.80;99.90
51733;DHT22;39139;53.144;6.244;2023-03-20T15:12:25;8.80;99.90
51733;DHT22;39139;53.144;6.244;2023-03-20T15:14:56;8.80;99.90
51733;DHT22;39139;53.144;6.244;2023-03-20T15:17:25;8.90;99.90
51733;DHT22;39139;53.144;6.244;2023-03-20T15:22:32;8.80;99.90
51733;DHT22;39139;53.144;6.244;2023-03-20T15:24:58;8.90;99.90
51733;DHT22;39139;53.144;6.244;2023-03-20T15:27:25;8.90;99.90
51733;DHT22;39139;53.144;6.244;2023-03-20T15:29:55;8.90;99.90
51733;DHT22;39139;53.144;6.244;2023-03-20T15:32:21;8.80;99.90
51733;DHT22;39139;53.144;6.244;2023-03-20T15:34:48;9.00;99.90
51733;DHT22;39139;53.144;6.244;2023-03-20T15:37:18;8.90;99.90
51733;DHT22;39139;53.144;6.244;2023-03-20T15:39:51;8.90;99.90
51733;DHT22;39139;53.144;6.244;2023-03-20T15:42:20;8.80;99.90
51733;DHT22;39139;53.144;6.244;2023-03-20T15:44:49;8.80;99.90
51733;DHT22;39139;53.144;6.244;2023-03-20T15:47:21;9.00;99.90
51733;DHT22;39139;53.144;6.244;2023-03-20T15:49:56;8.80;99.90
51733;DHT22;39139;53.144;6.244;2023-03-20T15:52:44;8.70;99.90
51733;DHT22;39139;53.144;6.244;2023-03-20T15:55:19;8.70;99.90
51733;DHT22;39139;53.144;6.244;2023-03-20T15:57:46;8.90;99.90
51733;DHT22;39139;53.144;6.244;2023-03-20T16:00:34;8.80;99.90
51733;DHT22;39139;53.144;6.244;2023-03-20T16:03:04;8.80;99.90
51733;DHT22;39139;53.144;6.244;2023-03-20T16:05:31;8.70;99.90
51733;DHT22;39139;53.144;6.244;2023-03-20T16:08:14;8.70;99.90
51733;DHT22;39139;53.144;6.244;2023-03-20T16:10:41;8.70;99.90
51733;DHT22;39139;53.144;6.244;2023-03-20T16:13:13;8.70;99.90
51733;DHT22;39139;53.144;6.244;2023-03-20T16:15:42;8.70;99.90
51733;DHT22;39139;53.144;6.244;2023-03-20T16:18:13;8.70;99.90
51733;DHT22;39139;53.144;6.244;2023-03-20T16:20:44;8.90;99.90
51733;DHT22;39139;53.144;6.244;2023-03-20T16:23:37;8.80;99.90
51733;DHT22;39139;53.144;6.244;2023-03-20T16:26:05;8.80;99.90
51733;DHT22;39139;53.144;6.244;2023-03-20T16:28:35;8.70;99.90
51733;DHT22;39139;53.144;6.244;2023-03-20T16:31:34;8.70;99.90
51733;DHT22;39139;53.144;6.244;2023-03-20T16:34:07;8.70;99.90
51733;DHT22;39139;53.144;6.244;2023-03-20T16:36:37;8.70;99.90
51733;DHT22;39139;53.144;6.244;2023-03-20T16:39:17;8.70;99.90
51733;DHT22;39139;53.144;6.244;2023-03-20T16:41:43;8.70;99.90
51733;DHT22;39139;53.144;6.244;2023-03-20T16:44:18;8.80;99.90
51733;DHT22;39139;53.144;6.244;2023-03-20T16:47:17;8.70;99.90
51733;DHT22;39139;53.144;6.244;2023-03-20T16:52:35;8.80;99.90
51733;DHT22;39139;53.144;6.244;2023-03-20T16:55:03;8.70;99.90
51733;DHT22;39139;53.144;6.244;2023-03-20T16:57:34;8.80;99.90
51733;DHT22;39139;53.144;6.244;2023-03-20T17:00:05;8.80;99.90
51733;DHT22;39139;53.144;6.244;2023-03-20T17:02:38;8.70;99.90
51733;DHT22;39139;53.144;6.244;2023-03-20T17:05:10;8.80;99.90
51733;DHT22;39139;53.144;6.244;2023-03-20T17:07:36;8.70;99.90
51733;DHT22;39139;53.144;6.244;2023-03-20T17:12:41;8.60;99.90
51733;DHT22;39139;53.144;6.244;2023-03-20T17:15:12;8.60;99.90
51733;DHT22;39139;53.144;6.244;2023-03-20T17:17:38;8.70;99.90
51733;DHT22;39139;53.144;6.244;2023-03-20T17:20:06;8.70;99.90
51733;DHT22;39139;53.144;6.244;2023-03-20T17:22:32;8.70;99.90
51733;DHT22;39139;53.144;6.244;2023-03-20T17:24:58;8.70;99.90
51733;DHT22;39139;53.144;6.244;2023-03-20T17:27:24;8.70;99.90
51733;DHT22;39139;53.144;6.244;2023-03-20T17:29:51;8.70;99.90
51733;DHT22;39139;53.144;6.244;2023-03-20T17:32:20;8.70;99.90
51733;DHT22;39139;53.144;6.244;2023-03-20T17:34:49;8.70;99.90
51733;DHT22;39139;53.144;6.244;2023-03-20T17:37:26;8.60;99.90
51733;DHT22;39139;53.144;6.244;2023-03-20T17:39:52;9.10;99.90
51733;DHT22;39139;53.144;6.244;2023-03-20T17:42:23;8.70;99.90
51733;DHT22;39139;53.144;6.244;2023-03-20T17:44:51;8.60;99.90
51733;DHT22;39139;53.144;6.244;2023-03-20T17:47:22;8.70;99.90
51733;DHT22;39139;53.144;6.244;2023-03-20T17:49:49;7.70;99.90
51733;DHT22;39139;53.144;6.244;2023-03-20T17:52:21;8.70;99.90
51733;DHT22;39139;53.144;6.244;2023-03-20T17:54:47;8.70;99.90
51733;DHT22;39139;53.144;6.244;2023-03-20T17:59:54;8.70;99.90
51733;DHT22;39139;53.144;6.244;2023-03-20T18:02:20;8.70;99.90
51733;DHT22;39139;53.144;6.244;2023-03-20T18:04:46;8.60;99.90
51733;DHT22;39139;53.144;6.244;2023-03-20T18:07:12;8.70;99.90
51733;DHT22;39139;53.144;6.244;2023-03-20T18:09:38;8.70;99.90
51733;DHT22;39139;53.144;6.244;2023-03-20T18:12:07;8.70;99.90
51733;DHT22;39139;53.144;6.244;2023-03-20T18:14:33;8.70;99.90
51733;DHT22;39139;53.144;6.244;2023-03-20T18:16:59;8.70;99.90